Time;durP1;ratioP1;P1;durP2;ratioP2;P2;SDS_P1;SDS_P2;PMS_P1;PMS_P2;Temp;Humidity;BMP_temperature;BMP_pressure;BME280_temperature;BME280_humidity;BME280_pressure;Samples;Min_cycle;Max_cycle;Signal;HPM_P1;HPM_P2
2023/04/11 00:02:08;;;;;;;;;;;;;;;;;;5088391;28;20011;-61
2023/04/11 00:04:37;;;;;;;;;;;;;;;;;;5090751;28;19990;-61
2023/04/11 00:07:03;;;;;;;;;;;;;;;;;;5077767;28;19920;-62
2023/04/11 00:09:29;;;;;;;;;;;;;;;;;;5086605;28;20041;-62
2023/04/11 00:11:56;;;;;;;;;;;;;;;;;;5089916;28;20342;-62
2023/04/11 00:14:22;;;;;;;;;;;;;;;;;;5089455;28;19978;-62
2023/04/11 00:16:48;;;;;;;;;;;;;;;;;;5089357;28;19967;-61
2023/04/11 00:19:15;;;;;;;;;;;;;;;;;;5071194;28;19920;-62
2023/04/11 00:21:42;;;;;;;;;;;;;;;;;;5090410;28;20424;-62
2023/04/11 00:24:08;;;;;;;;;;;;;;;;;;5087777;28;19931;-62
2023/04/11 00:26:34;;;;;;;;;;;;;;;;;;5088574;28;19928;-62
2023/04/11 00:29:00;;;;;;;;;;;;;;;;;;5089053;28;19932;-62
2023/04/11 00:31:26;;;;;;;;;;;;;;;;;;5087630;28;19928;-61
2023/04/11 00:33:52;;;;;;;;;;;;;;;;;;5089567;28;19927;-61
2023/04/11 00:36:18;;;;;;;;;;;;;;;;;;5088588;28;20437;-61
2023/04/11 00:38:45;;;;;;;;;;;;;;;;;;5090256;28;19963;-61
2023/04/11 00:41:11;;;;;;;;;;;;;;;;;;5084550;28;20738;-61
2023/04/11 00:43:37;;;;;;;;;;;;;;;;;;5070657;28;19976;-61
2023/04/11 00:46:02;;;;;;;;;;;;;;;;;;5083446;28;19920;-61
2023/04/11 00:48:28;;;;;;;;;;;;;;;;;;5089266;28;20002;-61
2023/04/11 00:50:54;;;;;;;;;;;;;;;;;;5089175;28;19933;-61
2023/04/11 00:53:20;;;;;;;;;;;;;;;;;;5088873;28;19924;-61
2023/04/11 00:55:46;;;;;;;;;;;;;;;;;;5090430;28;19931;-62
2023/04/11 00:58:12;;;;;;;;;;;;;;;;;;5087720;28;19924;-62
2023/04/11 01:00:38;;;;;;;;;;;;;;;;;;5090666;28;20421;-62
2023/04/11 01:03:04;;;;;;;;;;;;;;;;;;5087788;28;19934;-62
2023/04/11 01:05:30;;;;;;;;;;;;;;;;;;5070089;28;20023;-62
2023/04/11 01:07:56;;;;;;;;;;;;;;;;;;5089637;28;19924;-62
2023/04/11 01:10:22;;;;;;;;;;;;;;;;;;5089940;28;19931;-62
2023/04/11 01:12:48;;;;;;;;;;;;;;;;;;5088036;28;19924;-62
2023/04/11 01:15:13;;;;;;;;;;;;;;;;;;5087662;28;20351;-62
2023/04/11 01:17:40;;;;;;;;;;;;;;;;;;5090593;28;19924;-61
2023/04/11 01:20:06;;;;;;;;;;;;;;;;;;5093475;28;19959;-61
2023/04/11 01:22:32;;;;;;;;;;;;;;;;;;5091793;28;19927;-61
2023/04/11 01:24:58;;;;;;;;;;;;;;;;;;5091472;28;19920;-61
2023/04/11 01:27:24;;;;;;;;;;;;;;;;;;5093721;28;19981;-61
2023/04/11 01:29:51;;;;;;;;;;;;;;;;;;5091888;28;20015;-61
2023/04/11 01:32:16;;;;;;;;;;;;;;;;;;5093100;28;20300;-62
2023/04/11 01:34:42;;;;;;;;;;;;;;;;;;5074282;28;19928;-62
2023/04/11 01:37:08;;;;;;;;;;;;;;;;;;5092032;28;19950;-62
2023/04/11 01:39:34;;;;;;;;;;;;;;;;;;5093135;28;19920;-62
2023/04/11 01:42:00;;;;;;;;;;;;;;;;;;5092399;28;19982;-62
2023/04/11 01:44:26;;;;;;;;;;;;;;;;;;5074104;28;19981;-62
2023/04/11 01:46:52;;;;;;;;;;;;;;;;;;5091233;28;20673;-62
2023/04/11 01:49:18;;;;;;;;;;;;;;;;;;5075064;28;19931;-62
2023/04/11 01:51:44;;;;;;;;;;;;;;;;;;5093156;28;19920;-61
2023/04/11 01:54:10;;;;;;;;;;;;;;;;;;5091850;28;19924;-61
2023/04/11 01:56:36;;;;;;;;;;;;;;;;;;5091645;28;19947;-61
2023/04/11 01:59:03;;;;;;;;;;;;;;;;;;5087574;28;19920;-62
2023/04/11 02:01:29;;;;;;;;;;;;;;;;;;5090923;28;19931;-62
2023/04/11 02:03:55;;;;;;;;;;;;;;;;;;5092842;28;20014;-62
2023/04/11 02:06:21;;;;;;;;;;;;;;;;;;5092907;28;20010;-61
2023/04/11 02:08:47;;;;;;;;;;;;;;;;;;5091528;28;20381;-62
2023/04/11 02:11:12;;;;;;;;;;;;;;;;;;5086529;28;19927;-62
2023/04/11 02:13:39;;;;;;;;;;;;;;;;;;5089946;28;20608;-62
2023/04/11 02:16:05;;;;;;;;;;;;;;;;;;5086711;28;19924;-62
2023/04/11 02:18:30;;;;;;;;;;;;;;;;;;5087229;28;19924;-62
2023/04/11 02:20:57;;;;;;;;;;;;;;;;;;5089219;28;19951;-62
2023/04/11 02:23:23;;;;;;;;;;;;;;;;;;5091179;28;20542;-62
2023/04/11 02:25:49;;;;;;;;;;;;;;;;;;5091584;28;19924;-62
2023/04/11 02:28:15;;;;;;;;;;;;;;;;;;5092624;28;19927;-62
2023/04/11 02:30:41;;;;;;;;;;;;;;;;;;5088170;28;19929;-62
2023/04/11 02:33:07;;;;;;;;;;;;;;;;;;5089143;28;19924;-62
2023/04/11 02:35:33;;;;;;;;;;;;;;;;;;5091918;28;19935;-62
2023/04/11 02:37:58;;;;;;;;;;;;;;;;;;5092342;28;20250;-62
2023/04/11 02:40:24;;;;;;;;;;;;;;;;;;5090100;28;20019;-62
2023/04/11 02:42:51;;;;;;;;;;;;;;;;;;5090164;28;19924;-62
2023/04/11 02:45:17;;;;;;;;;;;;;;;;;;5088444;28;20653;-62
2023/04/11 02:47:43;;;;;;;;;;;;;;;;;;5073300;28;20023;-62
2023/04/11 02:50:09;;;;;;;;;;;;;;;;;;5070921;28;19931;-61
2023/04/11 02:52:36;;;;;;;;;;;;;;;;;;5091517;28;19924;-60
2023/04/11 02:55:02;;;;;;;;;;;;;;;;;;5055743;28;19920;-62
2023/04/11 02:57:28;;;;;;;;;;;;;;;;;;5071641;28;19995;-61
2023/04/11 02:59:54;;;;;;;;;;;;;;;;;;5091964;28;19932;-62
2023/04/11 03:02:22;;;;;;;;;;;;;;;;;;5087536;28;19942;-62
2023/04/11 03:04:48;;;;;;;;;;;;;;;;;;5089811;28;19925;-62
2023/04/11 03:07:14;;;;;;;;;;;;;;;;;;5090694;28;19927;-62
2023/04/11 03:09:39;;;;;;;;;;;;;;;;;;5090326;28;19924;-62
2023/04/11 03:12:05;;;;;;;;;;;;;;;;;;5089763;28;19930;-62
2023/04/11 03:14:31;;;;;;;;;;;;;;;;;;5091169;28;20365;-62
2023/04/11 03:16:57;;;;;;;;;;;;;;;;;;5087543;28;19927;-62
2023/04/11 03:19:23;;;;;;;;;;;;;;;;;;5091019;28;19961;-62
2023/04/11 03:21:49;;;;;;;;;;;;;;;;;;5086151;28;20019;-62
2023/04/11 03:24:16;;;;;;;;;;;;;;;;;;5090439;28;20387;-63
2023/04/11 03:26:43;;;;;;;;;;;;;;;;;;5089709;28;19971;-63
2023/04/11 03:29:09;;;;;;;;;;;;;;;;;;5090230;28;19928;-62
2023/04/11 03:31:35;;;;;;;;;;;;;;;;;;5089059;28;20007;-62
2023/04/11 03:34:01;;;;;;;;;;;;;;;;;;5083505;28;19973;-63
2023/04/11 03:36:27;;;;;;;;;;;;;;;;;;5091076;28;20296;-62
2023/04/11 03:38:53;;;;;;;;;;;;;;;;;;5088733;28;19966;-63
2023/04/11 03:41:19;;;;;;;;;;;;;;;;;;5090113;28;20538;-62
2023/04/11 03:43:45;;;;;;;;;;;;;;;;;;5089274;28;19985;-63
2023/04/11 03:46:11;;;;;;;;;;;;;;;;;;5087195;28;20369;-62
2023/04/11 03:48:36;;;;;;;;;;;;;;;;;;5079893;28;19923;-63
2023/04/11 03:51:02;;;;;;;;;;;;;;;;;;5087379;28;19924;-62
2023/04/11 03:53:28;;;;;;;;;;;;;;;;;;5070484;28;19924;-62
2023/04/11 03:55:54;;;;;;;;;;;;;;;;;;5079528;28;20523;-62
2023/04/11 03:58:20;;;;;;;;;;;;;;;;;;5085792;28;19931;-63
2023/04/11 04:00:46;;;;;;;;;;;;;;;;;;5090172;28;20333;-63
2023/04/11 04:03:12;;;;;;;;;;;;;;;;;;5089386;28;20106;-62
2023/04/11 04:05:38;;;;;;;;;;;;;;;;;;5087059;28;19920;-63
2023/04/11 04:08:04;;;;;;;;;;;;;;;;;;5086820;28;20006;-62
2023/04/11 04:10:30;;;;;;;;;;;;;;;;;;5090610;28;19950;-63
2023/04/11 04:12:56;;;;;;;;;;;;;;;;;;5090138;28;19930;-63
2023/04/11 04:15:22;;;;;;;;;;;;;;;;;;5070516;28;19919;-63
2023/04/11 04:17:47;;;;;;;;;;;;;;;;;;5072227;28;19927;-62
2023/04/11 04:20:13;;;;;;;;;;;;;;;;;;5082268;28;20396;-62
2023/04/11 04:22:39;;;;;;;;;;;;;;;;;;5086121;28;19924;-63
2023/04/11 04:25:05;;;;;;;;;;;;;;;;;;5080801;28;20019;-63
2023/04/11 04:27:31;;;;;;;;;;;;;;;;;;5069433;28;19926;-63
2023/04/11 04:29:57;;;;;;;;;;;;;;;;;;5090653;28;19977;-62
2023/04/11 04:32:23;;;;;;;;;;;;;;;;;;5087985;28;19928;-62
2023/04/11 04:34:49;;;;;;;;;;;;;;;;;;5089822;28;20511;-63
2023/04/11 04:37:21;;;;;;;;;;;;;;;;;;5087727;28;20448;-62
2023/04/11 04:39:49;;;;;;;;;;;;;;;;;;5089060;28;19949;-63
2023/04/11 04:42:15;;;;;;;;;;;;;;;;;;5090203;28;19924;-62
2023/04/11 04:44:41;;;;;;;;;;;;;;;;;;5087919;28;20011;-62
2023/04/11 04:47:07;;;;;;;;;;;;;;;;;;5088417;28;20391;-62
2023/04/11 04:49:33;;;;;;;;;;;;;;;;;;5087649;28;19925;-63
2023/04/11 04:51:59;;;;;;;;;;;;;;;;;;5051051;28;19929;-62
2023/04/11 04:54:25;;;;;;;;;;;;;;;;;;5071833;28;20340;-62
2023/04/11 04:56:51;;;;;;;;;;;;;;;;;;5091049;28;19956;-62
2023/04/11 04:59:17;;;;;;;;;;;;;;;;;;5092144;28;19928;-63
2023/04/11 05:01:43;;;;;;;;;;;;;;;;;;5091326;28;19939;-62
2023/04/11 05:04:09;;;;;;;;;;;;;;;;;;5091752;28;19962;-62
2023/04/11 05:06:35;;;;;;;;;;;;;;;;;;5073083;28;19920;-63
2023/04/11 05:09:01;;;;;;;;;;;;;;;;;;5087471;28;20398;-62
2023/04/11 05:11:27;;;;;;;;;;;;;;;;;;5090119;28;19924;-62
2023/04/11 05:13:53;;;;;;;;;;;;;;;;;;5055265;28;19946;-62
2023/04/11 05:16:19;;;;;;;;;;;;;;;;;;5092044;28;20352;-63
2023/04/11 05:18:45;;;;;;;;;;;;;;;;;;5093518;28;19963;-63
2023/04/11 05:21:11;;;;;;;;;;;;;;;;;;5092802;28;19924;-62
2023/04/11 05:23:37;;;;;;;;;;;;;;;;;;5093021;28;19928;-63
2023/04/11 05:26:03;;;;;;;;;;;;;;;;;;5089915;28;20009;-62
2023/04/11 05:28:29;;;;;;;;;;;;;;;;;;5091961;28;19970;-62
2023/04/11 05:30:55;;;;;;;;;;;;;;;;;;5094886;28;20316;-63
2023/04/11 05:33:23;;;;;;;;;;;;;;;;;;5092994;28;19920;-63
2023/04/11 05:35:49;;;;;;;;;;;;;;;;;;5074827;28;19951;-63
2023/04/11 05:38:15;;;;;;;;;;;;;;;;;;5091928;28;19928;-62
2023/04/11 05:40:41;;;;;;;;;;;;;;;;;;5085761;28;19971;-63
2023/04/11 05:43:10;;;;;;;;;;;;;;;;;;5089017;28;19932;-63
2023/04/11 05:45:37;;;;;;;;;;;;;;;;;;5090799;28;20405;-63
2023/04/11 05:48:03;;;;;;;;;;;;;;;;;;5091856;28;20016;-62
2023/04/11 05:50:28;;;;;;;;;;;;;;;;;;5092074;28;19976;-63
2023/04/11 05:52:54;;;;;;;;;;;;;;;;;;5091326;28;19924;-62
2023/04/11 05:55:20;;;;;;;;;;;;;;;;;;5092805;28;19943;-63
2023/04/11 05:57:46;;;;;;;;;;;;;;;;;;5093013;28;19924;-63
2023/04/11 06:00:15;;;;;;;;;;;;;;;;;;5092269;28;19927;-62
2023/04/11 06:02:41;;;;;;;;;;;;;;;;;;5092064;28;19927;-62
2023/04/11 06:05:07;;;;;;;;;;;;;;;;;;5092503;28;19928;-63
2023/04/11 06:07:34;;;;;;;;;;;;;;;;;;5093053;28;19927;-63
2023/04/11 06:10:00;;;;;;;;;;;;;;;;;;5093355;28;19920;-62
2023/04/11 06:12:26;;;;;;;;;;;;;;;;;;5093726;28;19924;-63
2023/04/11 06:14:52;;;;;;;;;;;;;;;;;;5093968;28;19920;-63
2023/04/11 06:17:18;;;;;;;;;;;;;;;;;;5074504;28;19920;-63
2023/04/11 06:19:44;;;;;;;;;;;;;;;;;;5089461;28;20490;-62
2023/04/11 06:22:10;;;;;;;;;;;;;;;;;;5085728;28;19927;-63
2023/04/11 06:24:35;;;;;;;;;;;;;;;;;;5081335;28;20010;-63
2023/04/11 06:27:02;;;;;;;;;;;;;;;;;;5081326;28;19920;-63
2023/04/11 06:29:28;;;;;;;;;;;;;;;;;;5073977;28;19934;-63
2023/04/11 06:31:54;;;;;;;;;;;;;;;;;;5093432;28;20379;-63
2023/04/11 06:34:20;;;;;;;;;;;;;;;;;;5057236;28;19928;-63
2023/04/11 06:36:48;;;;;;;;;;;;;;;;;;5093719;28;20010;-63
2023/04/11 06:39:15;;;;;;;;;;;;;;;;;;5094334;28;19950;-63
2023/04/11 06:41:41;;;;;;;;;;;;;;;;;;5093818;28;19998;-63
2023/04/11 06:44:07;;;;;;;;;;;;;;;;;;5092182;28;19932;-62
2023/04/11 06:46:33;;;;;;;;;;;;;;;;;;5092274;28;20342;-63
2023/04/11 06:48:59;;;;;;;;;;;;;;;;;;5093344;28;19972;-63
2023/04/11 06:51:25;;;;;;;;;;;;;;;;;;5081078;28;19945;-63
2023/04/11 06:53:51;;;;;;;;;;;;;;;;;;5073434;28;19930;-63
2023/04/11 06:56:17;;;;;;;;;;;;;;;;;;5087610;28;19924;-63
2023/04/11 06:58:43;;;;;;;;;;;;;;;;;;5093119;28;19926;-63
2023/04/11 07:01:09;;;;;;;;;;;;;;;;;;5093522;28;19922;-63
2023/04/11 07:03:35;;;;;;;;;;;;;;;;;;5093353;28;19956;-63
2023/04/11 07:06:01;;;;;;;;;;;;;;;;;;5084862;28;20459;-63
2023/04/11 07:08:27;;;;;;;;;;;;;;;;;;5073032;28;19925;-63
2023/04/11 07:10:53;;;;;;;;;;;;;;;;;;5054847;28;20392;-63
2023/04/11 07:13:20;;;;;;;;;;;;;;;;;;5087654;28;19927;-63
2023/04/11 07:15:46;;;;;;;;;;;;;;;;;;5093344;28;19920;-63
2023/04/11 07:18:11;;;;;;;;;;;;;;;;;;5092936;28;19930;-63
2023/04/11 07:20:37;;;;;;;;;;;;;;;;;;5093216;28;20277;-63
2023/04/11 07:23:03;;;;;;;;;;;;;;;;;;5073125;28;19924;-63
2023/04/11 07:25:29;;;;;;;;;;;;;;;;;;5090776;28;19959;-63
2023/04/11 07:27:55;;;;;;;;;;;;;;;;;;5088869;28;19969;-63
2023/04/11 07:30:21;;;;;;;;;;;;;;;;;;5085303;28;19926;-63
2023/04/11 07:32:47;;;;;;;;;;;;;;;;;;5072369;28;20403;-63
2023/04/11 07:35:13;;;;;;;;;;;;;;;;;;5088579;28;20032;-63
2023/04/11 07:37:41;;;;;;;;;;;;;;;;;;5090199;28;19969;-63
2023/04/11 07:40:09;;;;;;;;;;;;;;;;;;5089260;28;19963;-63
2023/04/11 07:42:35;;;;;;;;;;;;;;;;;;5088735;28;19993;-63
2023/04/11 07:45:01;;;;;;;;;;;;;;;;;;5090209;28;19927;-63
2023/04/11 07:47:27;;;;;;;;;;;;;;;;;;5089677;28;19927;-63
2023/04/11 07:49:53;;;;;;;;;;;;;;;;;;5089832;28;20279;-63
2023/04/11 07:52:19;;;;;;;;;;;;;;;;;;5089542;28;19974;-63
2023/04/11 07:54:45;;;;;;;;;;;;;;;;;;5056021;28;19924;-63
2023/04/11 07:57:11;;;;;;;;;;;;;;;;;;5086094;28;19920;-63
2023/04/11 07:59:37;;;;;;;;;;;;;;;;;;5088758;28;19924;-63
2023/04/11 08:02:05;;;;;;;;;;;;;;;;;;5089857;28;19927;-63
2023/04/11 08:04:32;;;;;;;;;;;;;;;;;;5089341;28;19931;-63
2023/04/11 08:06:58;;;;;;;;;;;;;;;;;;5090536;28;19958;-62
2023/04/11 08:09:24;;;;;;;;;;;;;;;;;;5088546;28;19974;-63
2023/04/11 08:11:50;;;;;;;;;;;;;;;;;;5082891;28;19920;-62
2023/04/11 08:14:15;;;;;;;;;;;;;;;;;;5089294;28;20484;-62
2023/04/11 08:16:41;;;;;;;;;;;;;;;;;;5089507;28;20400;-63
2023/04/11 08:19:09;;;;;;;;;;;;;;;;;;5072012;28;19924;-62
2023/04/11 08:21:35;;;;;;;;;;;;;;;;;;5088899;28;19920;-63
2023/04/11 08:24:01;;;;;;;;;;;;;;;;;;5089259;28;19950;-63
2023/04/11 08:26:27;;;;;;;;;;;;;;;;;;5086515;28;19924;-63
2023/04/11 08:28:52;;;;;;;;;;;;;;;;;;5086419;28;19923;-63
2023/04/11 08:31:18;;;;;;;;;;;;;;;;;;5086247;28;19935;-63
2023/04/11 08:33:44;;;;;;;;;;;;;;;;;;5089112;28;19924;-62
2023/04/11 08:36:10;;;;;;;;;;;;;;;;;;5088940;28;19920;-63
2023/04/11 08:38:36;;;;;;;;;;;;;;;;;;5089825;28;20020;-63
2023/04/11 08:41:02;;;;;;;;;;;;;;;;;;5085024;28;19920;-62
2023/04/11 08:43:28;;;;;;;;;;;;;;;;;;5084747;28;20315;-63
2023/04/11 08:45:54;;;;;;;;;;;;;;;;;;5089520;28;20350;-63
2023/04/11 08:48:23;;;;;;;;;;;;;;;;;;5070404;28;19920;-63
2023/04/11 08:50:49;;;;;;;;;;;;;;;;;;5061034;28;20297;-63
2023/04/11 08:53:16;;;;;;;;;;;;;;;;;;5087973;28;19924;-63
2023/04/11 08:55:42;;;;;;;;;;;;;;;;;;5071702;28;19978;-61
2023/04/11 08:58:08;;;;;;;;;;;;;;;;;;5088167;28;19983;-62
2023/04/11 09:00:34;;;;;;;;;;;;;;;;;;5087611;28;19924;-62
2023/04/11 09:03:00;;;;;;;;;;;;;;;;;;5087879;28;19924;-62
2023/04/11 09:05:26;;;;;;;;;;;;;;;;;;5090511;28;19928;-62
2023/04/11 09:07:53;;;;;;;;;;;;;;;;;;5088837;28;20388;-63
2023/04/11 09:10:19;;;;;;;;;;;;;;;;;;5067476;28;19924;-62
2023/04/11 09:12:45;;;;;;;;;;;;;;;;;;5086980;28;20321;-62
2023/04/11 09:15:11;;;;;;;;;;;;;;;;;;5088043;28;20065;-63
2023/04/11 09:17:37;;;;;;;;;;;;;;;;;;5068384;28;20003;-63
2023/04/11 09:20:05;;;;;;;;;;;;;;;;;;5085346;28;19949;-63
2023/04/11 09:22:31;;;;;;;;;;;;;;;;;;5082745;28;19920;-63
2023/04/11 09:24:57;;;;;;;;;;;;;;;;;;5085850;28;21944;-65
2023/04/11 09:27:25;;;;;;;;;;;;;;;;;;5064784;28;19924;-63
2023/04/11 09:29:51;;;;;;;;;;;;;;;;;;5070208;28;20365;-63
2023/04/11 09:32:16;;;;;;;;;;;;;;;;;;5088293;28;19950;-63
2023/04/11 09:34:43;;;;;;;;;;;;;;;;;;5088064;28;19927;-63
2023/04/11 09:37:09;;;;;;;;;;;;;;;;;;5070134;28;19931;-62
2023/04/11 09:39:35;;;;;;;;;;;;;;;;;;5080883;28;19920;-63
2023/04/11 09:42:02;;;;;;;;;;;;;;;;;;5089494;28;22015;-62
2023/04/11 09:44:27;;;;;;;;;;;;;;;;;;5056220;28;20262;-61
2023/04/11 09:46:53;;;;;;;;;;;;;;;;;;5112172;28;19926;-61
2023/04/11 09:49:19;;;;;;;;;;;;;;;;;;5114962;28;19924;-62
2023/04/11 09:51:45;;;;;;;;;;;;;;;;;;5095077;28;20679;-62
2023/04/11 09:54:11;;;;;;;;;;;;;;;;;;5086421;28;19924;-62
2023/04/11 09:56:37;;;;;;;;;;;;;;;;;;5089870;28;20037;-62
2023/04/11 09:59:03;;;;;;;;;;;;;;;;;;5092489;28;19920;-61
2023/04/11 10:01:29;;;;;;;;;;;;;;;;;;5087320;28;19977;-61
2023/04/11 10:03:55;;;;;;;;;;;;;;;;;;5075052;28;19924;-61
2023/04/11 10:06:21;;;;;;;;;;;;;;;;;;5085280;28;20391;-62
2023/04/11 10:08:47;;;;;;;;;;;;;;;;;;5055906;28;19931;-61
2023/04/11 10:11:13;;;;;;;;;;;;;;;;;;5092953;28;19920;-61
2023/04/11 10:13:39;;;;;;;;;;;;;;;;;;5064453;28;19958;-61
2023/04/11 10:16:07;;;;;;;;;;;;;;;;;;5090201;28;20002;-62
2023/04/11 10:18:33;;;;;;;;;;;;;;;;;;5090506;28;19920;-61
2023/04/11 10:21:00;;;;;;;;;;;;;;;;;;5085311;28;19932;-62
2023/04/11 10:23:26;;;;;;;;;;;;;;;;;;5086975;28;19956;-62
2023/04/11 10:25:52;;;;;;;;;;;;;;;;;;5088159;28;20388;-62
2023/04/11 10:28:17;;;;;;;;;;;;;;;;;;5085438;28;20289;-62
2023/04/11 10:30:43;;;;;;;;;;;;;;;;;;5088241;28;19931;-62
2023/04/11 10:33:10;;;;;;;;;;;;;;;;;;5086023;28;19924;-62
2023/04/11 10:35:35;;;;;;;;;;;;;;;;;;5070902;28;19925;-61
2023/04/11 10:38:01;;;;;;;;;;;;;;;;;;5089960;28;19966;-61
2023/04/11 10:40:27;;;;;;;;;;;;;;;;;;5092196;28;20369;-62
2023/04/11 10:42:53;;;;;;;;;;;;;;;;;;5090967;28;19920;-62
2023/04/11 10:45:20;;;;;;;;;;;;;;;;;;5091123;28;19927;-62
2023/04/11 10:47:46;;;;;;;;;;;;;;;;;;5069763;28;20370;-63
2023/04/11 10:50:12;;;;;;;;;;;;;;;;;;5083955;28;19925;-62
2023/04/11 10:52:38;;;;;;;;;;;;;;;;;;5062994;28;19974;-63
2023/04/11 10:55:04;;;;;;;;;;;;;;;;;;5068391;28;20011;-62
2023/04/11 10:57:30;;;;;;;;;;;;;;;;;;5067263;28;20025;-61
2023/04/11 10:59:56;;;;;;;;;;;;;;;;;;5069326;28;19928;-61
2023/04/11 11:02:22;;;;;;;;;;;;;;;;;;5066919;28;20029;-61
2023/04/11 11:04:48;;;;;;;;;;;;;;;;;;5094315;22;20398;-65
2023/04/11 11:07:17;;;;;;;;;;;;;;;;;;5108760;28;19926;-64
2023/04/11 11:09:45;;;;;;;;;;;;;;;;;;5091978;28;21274;-63
2023/04/11 11:12:11;;;;;;;;;;;;;;;;;;5110719;28;19963;-64
2023/04/11 11:14:37;;;;;;;;;;;;;;;;;;5113651;28;20471;-64
2023/04/11 11:17:03;;;;;;;;;;;;;;;;;;5108010;28;19931;-64
2023/04/11 11:19:29;;;;;;;;;;;;;;;;;;5111968;28;19919;-64
2023/04/11 11:21:54;;;;;;;;;;;;;;;;;;5109048;28;19995;-63
2023/04/11 11:24:20;;;;;;;;;;;;;;;;;;5083048;28;19932;-64
2023/04/11 11:26:48;;;;;;;;;;;;;;;;;;5109882;28;19965;-65
2023/04/11 11:29:14;;;;;;;;;;;;;;;;;;5108837;28;19923;-65
2023/04/11 11:31:40;;;;;;;;;;;;;;;;;;5109391;28;20361;-65
2023/04/11 11:34:06;;;;;;;;;;;;;;;;;;5111439;28;19927;-64
2023/04/11 11:36:32;;;;;;;;;;;;;;;;;;5093180;28;20975;-64
2023/04/11 11:38:58;;;;;;;;;;;;;;;;;;5110333;28;19927;-64
2023/04/11 11:41:25;;;;;;;;;;;;;;;;;;5111134;28;19923;-65
2023/04/11 11:43:51;;;;;;;;;;;;;;;;;;5107446;28;19997;-65
2023/04/11 11:46:17;;;;;;;;;;;;;;;;;;5105496;28;20424;-65
2023/04/11 11:48:43;;;;;;;;;;;;;;;;;;5111416;28;19926;-64
2023/04/11 11:51:09;;;;;;;;;;;;;;;;;;5108685;28;20574;-64
2023/04/11 11:53:35;;;;;;;;;;;;;;;;;;5090015;28;19930;-66
2023/04/11 11:56:01;;;;;;;;;;;;;;;;;;5108282;28;20380;-65
2023/04/11 11:58:27;;;;;;;;;;;;;;;;;;5108888;28;19962;-65
2023/04/11 12:00:53;;;;;;;;;;;;;;;;;;5104446;28;19924;-65
2023/04/11 12:03:19;;;;;;;;;;;;;;;;;;5089586;28;19924;-64
2023/04/11 12:05:46;;;;;;;;;;;;;;;;;;5105160;28;20293;-65
2023/04/11 12:08:12;;;;;;;;;;;;;;;;;;5106249;28;20015;-65
2023/04/11 12:10:38;;;;;;;;;;;;;;;;;;5108390;28;20002;-64
2023/04/11 12:13:04;;;;;;;;;;;;;;;;;;5110324;28;20371;-64
2023/04/11 12:15:30;;;;;;;;;;;;;;;;;;5108405;28;19928;-65
2023/04/11 12:17:56;;;;;;;;;;;;;;;;;;5089615;28;19989;-65
2023/04/11 12:20:22;;;;;;;;;;;;;;;;;;5108732;28;19924;-64
2023/04/11 12:22:48;;;;;;;;;;;;;;;;;;5109406;28;20678;-66
2023/04/11 12:25:14;;;;;;;;;;;;;;;;;;5088935;28;19971;-65
2023/04/11 12:27:40;;;;;;;;;;;;;;;;;;5110179;28;19951;-64
2023/04/11 12:30:06;;;;;;;;;;;;;;;;;;5107976;28;20434;-65
2023/04/11 12:32:32;;;;;;;;;;;;;;;;;;5108786;28;19920;-64
2023/04/11 12:34:58;;;;;;;;;;;;;;;;;;5090019;28;20289;-65
2023/04/11 12:37:24;;;;;;;;;;;;;;;;;;5110545;28;19920;-64
2023/04/11 12:39:50;;;;;;;;;;;;;;;;;;5108370;28;19926;-64
2023/04/11 12:42:16;;;;;;;;;;;;;;;;;;5107532;28;20351;-64
2023/04/11 12:44:42;;;;;;;;;;;;;;;;;;5109024;28;19924;-64
2023/04/11 12:47:08;;;;;;;;;;;;;;;;;;5108375;28;19969;-64
2023/04/11 12:49:34;;;;;;;;;;;;;;;;;;5070237;28;19923;-64
2023/04/11 12:52:00;;;;;;;;;;;;;;;;;;5093819;28;19969;-65
2023/04/11 12:54:26;;;;;;;;;;;;;;;;;;5106224;28;19928;-65
2023/04/11 12:56:52;;;;;;;;;;;;;;;;;;5088336;28;19935;-64
2023/04/11 12:59:18;;;;;;;;;;;;;;;;;;5105638;28;20034;-64
2023/04/11 13:01:45;;;;;;;;;;;;;;;;;;5075985;28;19998;-65
2023/04/11 13:04:11;;;;;;;;;;;;;;;;;;5109564;28;20634;-65
2023/04/11 13:06:37;;;;;;;;;;;;;;;;;;5092319;28;19938;-65
2023/04/11 13:09:04;;;;;;;;;;;;;;;;;;5073394;28;19920;-65
2023/04/11 13:11:30;;;;;;;;;;;;;;;;;;5091818;28;19937;-65
2023/04/11 13:13:56;;;;;;;;;;;;;;;;;;5073061;28;19920;-65
2023/04/11 13:16:22;;;;;;;;;;;;;;;;;;5095154;28;19989;-65
2023/04/11 13:18:48;;;;;;;;;;;;;;;;;;5094079;28;19928;-65
2023/04/11 13:21:14;;;;;;;;;;;;;;;;;;5115197;28;20010;-65
2023/04/11 13:23:39;;;;;;;;;;;;;;;;;;5097099;28;20014;-65
2023/04/11 13:26:06;;;;;;;;;;;;;;;;;;5115546;28;19988;-65
2023/04/11 13:28:33;;;;;;;;;;;;;;;;;;5110702;28;20693;-65
2023/04/11 13:30:59;;;;;;;;;;;;;;;;;;5095753;28;19923;-66
2023/04/11 13:33:26;;;;;;;;;;;;;;;;;;5113708;28;19924;-66
2023/04/11 13:35:51;;;;;;;;;;;;;;;;;;5098963;28;20003;-65
2023/04/11 13:38:17;;;;;;;;;;;;;;;;;;5113633;28;20069;-66
2023/04/11 13:40:43;;;;;;;;;;;;;;;;;;5107782;28;19923;-65
2023/04/11 13:43:09;;;;;;;;;;;;;;;;;;5107998;28;19935;-67
2023/04/11 13:45:35;;;;;;;;;;;;;;;;;;5109201;28;20006;-67
2023/04/11 13:48:01;;;;;;;;;;;;;;;;;;5108923;28;20353;-67
2023/04/11 13:50:27;;;;;;;;;;;;;;;;;;5115263;28;19931;-67
2023/04/11 13:52:53;;;;;;;;;;;;;;;;;;5115265;28;19924;-66
2023/04/11 13:55:19;;;;;;;;;;;;;;;;;;5094673;28;20019;-65
2023/04/11 13:57:45;;;;;;;;;;;;;;;;;;5094508;28;20010;-66
2023/04/11 14:00:11;;;;;;;;;;;;;;;;;;5106582;28;19958;-65
2023/04/11 14:02:37;;;;;;;;;;;;;;;;;;5105481;28;20328;-65
2023/04/11 14:05:03;;;;;;;;;;;;;;;;;;5108615;28;20403;-65
2023/04/11 14:07:29;;;;;;;;;;;;;;;;;;5104143;28;19926;-66
2023/04/11 14:09:55;;;;;;;;;;;;;;;;;;5088579;28;19959;-65
2023/04/11 14:12:21;;;;;;;;;;;;;;;;;;5107599;28;20004;-65
2023/04/11 14:14:47;;;;;;;;;;;;;;;;;;5112028;28;19928;-65
2023/04/11 14:17:12;;;;;;;;;;;;;;;;;;5112830;28;19927;-65
2023/04/11 14:19:38;;;;;;;;;;;;;;;;;;5068941;28;20285;-65
2023/04/11 14:22:04;;;;;;;;;;;;;;;;;;5110077;28;19923;-65
2023/04/11 14:24:31;;;;;;;;;;;;;;;;;;5107508;28;19969;-66
2023/04/11 14:26:57;;;;;;;;;;;;;;;;;;5107006;28;19934;-65
2023/04/11 14:29:23;;;;;;;;;;;;;;;;;;5112211;28;20010;-66
2023/04/11 14:31:48;;;;;;;;;;;;;;;;;;5112475;28;19919;-65
2023/04/11 14:34:16;;;;;;;;;;;;;;;;;;5112205;28;19926;-65
2023/04/11 14:36:42;;;;;;;;;;;;;;;;;;5111304;28;20536;-65
2023/04/11 14:39:08;;;;;;;;;;;;;;;;;;5114016;28;19942;-66
2023/04/11 14:41:34;;;;;;;;;;;;;;;;;;5094348;28;19989;-66
2023/04/11 14:44:00;;;;;;;;;;;;;;;;;;5111102;28;19945;-65
2023/04/11 14:46:26;;;;;;;;;;;;;;;;;;5067345;28;20408;-66
2023/04/11 14:48:52;;;;;;;;;;;;;;;;;;5084623;28;19968;-66
2023/04/11 14:51:18;;;;;;;;;;;;;;;;;;5111438;28;19924;-65
2023/04/11 14:53:49;;;;;;;;;;;;;;;;;;5113034;28;19920;-66
2023/04/11 14:56:15;;;;;;;;;;;;;;;;;;5109972;28;19920;-65
2023/04/11 14:58:41;;;;;;;;;;;;;;;;;;5095400;28;19919;-65
2023/04/11 15:01:07;;;;;;;;;;;;;;;;;;5090988;28;19923;-66
2023/04/11 15:03:33;;;;;;;;;;;;;;;;;;5094257;28;19924;-65
2023/04/11 15:05:59;;;;;;;;;;;;;;;;;;5099119;28;20009;-65
2023/04/11 15:08:25;;;;;;;;;;;;;;;;;;5110696;28;19920;-65
2023/04/11 15:10:52;;;;;;;;;;;;;;;;;;5109253;28;19931;-65
2023/04/11 15:13:18;;;;;;;;;;;;;;;;;;5109816;28;20014;-65
2023/04/11 15:15:44;;;;;;;;;;;;;;;;;;5091948;28;20064;-66
2023/04/11 15:18:10;;;;;;;;;;;;;;;;;;5110011;28;20528;-65
2023/04/11 15:20:36;;;;;;;;;;;;;;;;;;5111757;28;19919;-65
2023/04/11 15:23:02;;;;;;;;;;;;;;;;;;5104675;28;19927;-66
2023/04/11 15:25:28;;;;;;;;;;;;;;;;;;5096930;28;19928;-65
2023/04/11 15:27:54;;;;;;;;;;;;;;;;;;5105830;28;19920;-66
2023/04/11 15:30:20;;;;;;;;;;;;;;;;;;5109338;28;19944;-65
2023/04/11 15:32:46;;;;;;;;;;;;;;;;;;5107257;28;19928;-65
2023/04/11 15:35:12;;;;;;;;;;;;;;;;;;5085813;28;19920;-65
2023/04/11 15:37:38;;;;;;;;;;;;;;;;;;5101913;28;19931;-65
2023/04/11 15:40:04;;;;;;;;;;;;;;;;;;5097981;28;19919;-65
2023/04/11 15:42:32;;;;;;;;;;;;;;;;;;5095370;28;19924;-65
2023/04/11 15:44:58;;;;;;;;;;;;;;;;;;5098521;28;19975;-65
2023/04/11 15:47:24;;;;;;;;;;;;;;;;;;5105591;28;19970;-65
2023/04/11 15:49:50;;;;;;;;;;;;;;;;;;5109762;28;20003;-65
2023/04/11 15:52:17;;;;;;;;;;;;;;;;;;5103794;28;20364;-65
2023/04/11 15:54:43;;;;;;;;;;;;;;;;;;5106077;28;19920;-66
2023/04/11 15:57:09;;;;;;;;;;;;;;;;;;5105771;28;19919;-63
2023/04/11 15:59:36;;;;;;;;;;;;;;;;;;5108018;28;19927;-64
2023/04/11 16:02:02;;;;;;;;;;;;;;;;;;5106792;28;20034;-63
2023/04/11 16:04:28;;;;;;;;;;;;;;;;;;5108740;28;20011;-63
2023/04/11 16:06:55;;;;;;;;;;;;;;;;;;5111320;28;19935;-62
2023/04/11 16:09:21;;;;;;;;;;;;;;;;;;5106025;28;19927;-62
2023/04/11 16:11:47;;;;;;;;;;;;;;;;;;5075991;28;19969;-63
2023/04/11 16:14:13;;;;;;;;;;;;;;;;;;5087355;28;20295;-62
2023/04/11 16:16:39;;;;;;;;;;;;;;;;;;5113256;28;20341;-62
2023/04/11 16:19:06;;;;;;;;;;;;;;;;;;5113200;28;19965;-63
2023/04/11 16:21:32;;;;;;;;;;;;;;;;;;5113319;28;19927;-63
2023/04/11 16:23:57;;;;;;;;;;;;;;;;;;5094942;28;19928;-63
2023/04/11 16:26:23;;;;;;;;;;;;;;;;;;5094345;28;20510;-63
2023/04/11 16:28:49;;;;;;;;;;;;;;;;;;5106083;28;19963;-62
2023/04/11 16:31:20;;;;;;;;;;;;;;;;;;5110447;28;19959;-62
2023/04/11 16:33:46;;;;;;;;;;;;;;;;;;5111499;28;19928;-63
2023/04/11 16:36:12;;;;;;;;;;;;;;;;;;5111250;28;19968;-63
2023/04/11 16:38:38;;;;;;;;;;;;;;;;;;5089628;28;20273;-63